KACT/ACT METAR and TAF weather

Enter ICAO airport designator
Station Type Date Time Source
KACT METAR 2022/01/23 10:51 UTC NOAA

KACT 231051Z AUTO 28003KT 10SM FEW065 M02/M06 A3032 RMK AO2 SLP267 T10221061


Station Type Date Time Source
KACT Decoded METAR 2022/01/23 10:51 UTC NOAA

WACO REGIONAL AIRPORT, TX, United States (KACT) 31-36N 97-13W 151M
Jan 23, 2022 - 05:51 AM EST / 2022.01.23 1051 UTC
Wind: from the W (280 degrees) at 3 MPH (3 KT):0
Visibility: 10 mile(s):0
Sky conditions: mostly clear
Temperature: 28.0 F (-2.2 C)
Dew Point: 21.0 F (-6.1 C)
Relative Humidity: 74%
Pressure (altimeter): 30.32 in. Hg (1026 hPa)
ob: KACT 231051Z AUTO 28003KT 10SM FEW065 M02/M06 A3032 RMK AO2 SLP267 T10221061
cycle: 11

Station Type Date Time Source
KACT TAF 2022/01/23 12:28 UTC NOAA

TAF KACT 231125Z 2312/2412 24005KT P6SM SCT060
FM231800 21009KT P6SM BKN050
FM241100 20008KT P6SM VCSH OVC040

Example: see airport list